Westside, Georgia
Current Conditions -  °F | °C
As of 5:53 AM on Friday 28 Nov 2014 (Local Time) from KGVL Reporting Station
Clear Clear  
Wind Chill: 20°   Ceiling: Unl
Heat Index: 29°   Visibility: 10mi
Dew Point: 20°   Wind: 9mph
Humidity: 69%   Direction: 310°NW
Pressure: 30.33"   Gusts: NA
Location:  34.3157°N, 83.8152°W
Report Text: KGVL 281053Z AUTO 31008KT 10SM CLR M02/M07 A3033 RMK AO2 SLP279 T10171067
Loading
Personal Weather Stations






























Interactive Weather Map New forecast layout! Learn more

10-Day Weather Forecast

Advertisements
Track Severe Weather on mobile